createdAt,value
2023-12-23T00:01:21.414Z,85047.80
2023-12-23T00:03:50.356Z,85042.20
2023-12-23T00:06:18.826Z,85043.00
2023-12-23T00:08:47.266Z,85038.80
2023-12-23T00:11:15.507Z,85029.20
2023-12-23T00:13:44.521Z,85025.80
2023-12-23T00:16:13.155Z,85027.60
2023-12-23T00:21:40.675Z,85022.60
2023-12-23T00:24:09.760Z,85023.60
2023-12-23T00:26:38.645Z,85017.20
2023-12-23T00:29:07.823Z,85027.60
2023-12-23T00:31:37.080Z,85017.60
2023-12-23T00:37:13.205Z,85016.40
2023-12-23T00:39:42.764Z,85012.00
2023-12-23T00:42:11.843Z,85017.80
2023-12-23T00:44:40.806Z,85017.80
2023-12-23T00:47:10.020Z,85014.80
2023-12-23T00:49:39.076Z,85015.40
2023-12-23T00:52:08.115Z,85007.20
2023-12-23T00:54:40.132Z,85003.40
2023-12-23T00:57:09.006Z,84999.00
2023-12-23T00:59:38.002Z,85004.20
2023-12-23T01:02:07.168Z,85005.80
2023-12-23T01:04:36.732Z,85010.60
2023-12-23T01:07:06.098Z,85004.60
2023-12-23T01:09:34.879Z,84999.40
2023-12-23T01:12:03.785Z,84998.00
2023-12-23T01:14:32.789Z,84996.80
2023-12-23T01:17:01.671Z,84987.00
2023-12-23T01:19:30.613Z,84993.40
2023-12-23T01:21:59.854Z,84987.60
2023-12-23T01:24:31.090Z,84983.20
2023-12-23T01:27:00.312Z,84985.00
2023-12-23T01:29:29.249Z,84982.00
2023-12-23T01:31:58.413Z,84981.80
2023-12-23T01:34:26.922Z,84986.00
2023-12-23T01:36:55.882Z,84986.00
2023-12-23T01:39:26.109Z,84986.40
2023-12-23T01:41:55.089Z,84986.20
2023-12-23T01:44:24.067Z,84989.60
2023-12-23T01:46:58.888Z,84987.80
2023-12-23T01:49:30.280Z,84996.20
2023-12-23T01:52:02.515Z,84986.80
2023-12-23T01:54:32.626Z,84993.00
2023-12-23T01:57:01.857Z,84989.80
2023-12-23T01:59:31.004Z,84993.60
2023-12-23T02:02:01.561Z,84992.40
2023-12-23T02:04:30.854Z,84994.40
2023-12-23T02:06:59.839Z,84988.00
2023-12-23T02:09:28.867Z,84991.60
2023-12-23T02:12:25.056Z,84996.80
2023-12-23T02:15:11.197Z,84993.20
2023-12-23T02:17:46.219Z,84987.20
2023-12-23T02:20:15.359Z,84992.40
2023-12-23T02:22:44.599Z,84993.40
2023-12-23T02:25:13.591Z,84990.80
2023-12-23T02:27:52.344Z,84986.00
2023-12-23T02:30:22.994Z,84989.00
2023-12-23T02:32:53.540Z,84986.60
2023-12-23T02:35:29.642Z,84986.20
2023-12-23T02:37:58.717Z,84987.20
2023-12-23T02:40:27.999Z,84980.80
2023-12-23T02:43:01.216Z,84989.40
2023-12-23T02:45:30.578Z,84990.80
2023-12-23T02:47:59.640Z,84990.00
2023-12-23T02:50:28.652Z,84993.60
2023-12-23T02:52:57.646Z,84997.60
2023-12-23T02:55:26.492Z,84998.00
2023-12-23T02:57:55.441Z,84998.60
2023-12-23T03:00:24.767Z,85000.80
2023-12-23T03:02:53.913Z,84996.80
2023-12-23T03:05:23.299Z,85001.00
2023-12-23T03:07:52.367Z,84997.40
2023-12-23T03:10:21.313Z,84999.40
2023-12-23T03:12:50.813Z,84999.40
2023-12-23T03:15:19.928Z,85004.80
2023-12-23T03:17:48.963Z,85008.60
2023-12-23T03:20:18.226Z,85000.60
2023-12-23T03:22:50.454Z,85009.40
2023-12-23T03:25:19.731Z,85014.60
2023-12-23T03:27:48.612Z,85018.40
2023-12-23T03:30:17.976Z,85014.00
2023-12-23T03:32:48.468Z,85026.00
2023-12-23T03:35:18.082Z,85035.40
2023-12-23T03:37:47.598Z,85029.80
2023-12-23T03:40:16.642Z,85034.60
2023-12-23T03:42:45.918Z,85041.00
2023-12-23T03:45:15.040Z,85037.20
2023-12-23T03:47:44.035Z,85040.20
2023-12-23T03:50:13.206Z,85037.20
2023-12-23T03:52:42.223Z,85047.00
2023-12-23T03:55:14.146Z,85044.60
2023-12-23T03:57:45.021Z,85040.80
2023-12-23T04:00:14.798Z,85042.40
2023-12-23T04:02:45.776Z,85044.00
2023-12-23T04:05:18.210Z,85046.20
2023-12-23T04:07:50.543Z,85051.00
2023-12-23T04:10:20.414Z,85055.80
2023-12-23T04:12:49.681Z,85058.00
2023-12-23T04:15:18.970Z,85062.60
2023-12-23T04:17:48.088Z,85056.40
2023-12-23T04:20:17.203Z,85056.40
2023-12-23T04:25:51.679Z,85060.20
2023-12-23T04:28:26.688Z,85055.20
2023-12-23T04:30:58.835Z,85057.00
2023-12-23T04:33:27.733Z,85057.60
2023-12-23T04:36:02.342Z,85060.60
2023-12-23T04:38:33.725Z,85067.00
2023-12-23T04:41:03.184Z,85069.80
2023-12-23T04:43:35.325Z,85070.60
2023-12-23T04:46:07.595Z,85076.40
2023-12-23T04:48:36.709Z,85082.60
2023-12-23T04:51:06.227Z,85085.60
2023-12-23T04:53:35.280Z,85087.60
2023-12-23T04:56:04.525Z,85090.80
2023-12-23T04:58:33.470Z,85090.20
2023-12-23T05:01:03.340Z,85095.80
2023-12-23T05:03:48.601Z,85091.20
2023-12-23T05:06:17.778Z,85091.80
2023-12-23T05:08:46.867Z,85103.60
2023-12-23T05:11:16.132Z,85111.00
2023-12-23T05:13:45.225Z,85117.00
2023-12-23T05:16:14.731Z,85113.40
2023-12-23T05:18:43.762Z,85107.40
2023-12-23T05:21:12.739Z,85108.60
2023-12-23T05:23:42.725Z,85119.00
2023-12-23T05:26:14.418Z,85123.40
2023-12-23T05:28:43.530Z,85128.20
2023-12-23T05:31:12.646Z,85130.40
2023-12-23T05:33:41.838Z,85136.60
2023-12-23T05:36:17.704Z,85143.00
2023-12-23T05:38:50.018Z,85153.60
2023-12-23T05:41:27.551Z,85160.00
2023-12-23T05:43:56.563Z,85156.40
2023-12-23T05:46:25.692Z,85155.00
2023-12-23T05:48:54.876Z,85162.60
2023-12-23T05:51:24.102Z,85165.80
2023-12-23T05:53:53.358Z,85166.60
2023-12-23T05:56:24.223Z,85172.60
2023-12-23T05:58:53.862Z,85179.60
2023-12-23T06:01:22.849Z,85187.00
2023-12-23T06:03:52.502Z,85191.60
2023-12-23T06:06:21.650Z,85189.40
2023-12-23T06:08:50.838Z,85194.80
2023-12-23T06:11:19.994Z,85205.20
2023-12-23T06:13:49.067Z,85206.80
2023-12-23T06:16:17.982Z,85216.20
2023-12-23T06:18:47.038Z,85211.00
2023-12-23T06:21:16.018Z,85212.80
2023-12-23T06:23:44.939Z,85220.40
2023-12-23T06:26:14.493Z,85221.20
2023-12-23T06:28:43.702Z,85214.60
2023-12-23T06:31:12.744Z,85217.40
2023-12-23T06:33:41.876Z,85216.80
2023-12-23T06:36:13.939Z,85220.20
2023-12-23T06:38:43.449Z,85230.00
2023-12-23T06:41:15.701Z,85226.40
2023-12-23T06:43:51.537Z,85230.20
2023-12-23T06:46:22.282Z,85231.60
2023-12-23T06:48:52.986Z,85232.20
2023-12-23T06:51:22.282Z,85230.40
2023-12-23T06:53:52.679Z,85227.80
2023-12-23T06:56:22.652Z,85223.40
2023-12-23T06:58:51.739Z,85224.60
2023-12-23T07:01:20.733Z,85226.00
2023-12-23T07:03:49.654Z,85226.40
2023-12-23T07:06:18.533Z,85228.00
2023-12-23T07:11:51.889Z,85230.00
2023-12-23T07:14:20.995Z,85229.80
2023-12-23T07:16:50.147Z,85233.00
2023-12-23T07:19:19.435Z,85238.20
2023-12-23T07:21:50.684Z,85236.60
2023-12-23T07:24:19.685Z,85229.40
2023-12-23T07:29:52.959Z,85244.20
2023-12-23T07:32:22.133Z,85240.80
2023-12-23T07:34:51.195Z,85252.20
2023-12-23T07:37:20.080Z,85254.40
2023-12-23T07:39:49.081Z,85256.20
2023-12-23T07:42:18.070Z,85261.00
2023-12-23T07:44:47.053Z,85263.20
2023-12-23T07:47:15.991Z,85271.00
2023-12-23T07:49:44.973Z,85273.40
2023-12-23T07:52:14.063Z,85276.80
2023-12-23T07:54:43.105Z,85279.80
2023-12-23T07:57:14.484Z,85277.60
2023-12-23T07:59:45.572Z,85281.00
2023-12-23T08:02:14.839Z,85291.20
2023-12-23T08:04:44.192Z,85301.20
2023-12-23T08:07:13.548Z,85312.20
2023-12-23T08:09:43.768Z,85308.00
2023-12-23T08:12:13.473Z,85318.40
2023-12-23T08:14:42.488Z,85331.00
2023-12-23T08:17:12.627Z,85341.80
2023-12-23T08:19:41.712Z,85354.20
2023-12-23T08:22:10.991Z,85359.00
2023-12-23T08:24:40.121Z,85357.20
2023-12-23T08:27:09.955Z,85358.00
2023-12-23T08:29:38.980Z,85357.20
2023-12-23T08:32:08.814Z,85363.20
2023-12-23T08:34:37.721Z,85369.20
2023-12-23T08:37:06.787Z,85368.80
2023-12-23T08:39:35.711Z,85372.00
2023-12-23T08:42:04.445Z,85388.40
2023-12-23T08:44:33.389Z,85404.20
2023-12-23T08:47:03.692Z,85412.40
2023-12-23T08:49:32.744Z,85425.40
2023-12-23T08:52:01.585Z,85435.80
2023-12-23T08:54:30.679Z,85428.40
2023-12-23T08:56:59.687Z,85443.60
2023-12-23T08:59:28.682Z,85449.00
2023-12-23T09:01:57.583Z,85460.60
2023-12-23T09:04:26.525Z,85467.40
2023-12-23T09:06:55.336Z,85472.00
2023-12-23T09:09:24.188Z,85475.20
2023-12-23T09:11:53.222Z,85482.20
2023-12-23T09:14:22.454Z,85491.20
2023-12-23T09:16:51.455Z,85496.60
2023-12-23T09:19:20.444Z,85510.00
2023-12-23T09:21:49.552Z,85511.40
2023-12-23T09:24:18.485Z,85528.60
2023-12-23T09:26:47.396Z,85540.40
2023-12-23T09:29:16.434Z,85541.40
2023-12-23T09:31:45.550Z,85553.40
2023-12-23T09:34:14.522Z,85565.40
2023-12-23T09:40:03.580Z,85580.80
2023-12-23T09:42:33.529Z,85582.20
2023-12-23T09:45:03.615Z,85583.80
2023-12-23T09:47:32.956Z,85594.40
2023-12-23T09:50:05.093Z,85597.00
2023-12-23T09:52:36.596Z,85597.80
2023-12-23T09:55:07.120Z,85593.60
2023-12-23T09:57:37.453Z,85605.80
2023-12-23T10:00:07.828Z,85617.40
2023-12-23T10:02:36.762Z,85619.40
2023-12-23T10:05:06.182Z,85616.60
2023-12-23T10:07:35.355Z,85622.80
2023-12-23T10:10:04.442Z,85631.80
2023-12-23T10:12:33.381Z,85636.80
2023-12-23T10:15:03.585Z,85641.40
2023-12-23T10:17:35.199Z,85653.60
2023-12-23T10:20:05.794Z,85659.00
2023-12-23T10:22:34.692Z,85671.00
2023-12-23T10:25:03.969Z,85679.40
2023-12-23T10:27:35.795Z,85681.80
2023-12-23T10:30:13.538Z,85693.20
2023-12-23T10:32:44.747Z,85700.20
2023-12-23T10:35:20.697Z,85704.40
2023-12-23T10:37:55.228Z,85709.60
2023-12-23T10:40:29.709Z,85718.40
2023-12-23T10:43:03.500Z,85723.80
2023-12-23T10:45:37.211Z,85729.80
2023-12-23T10:48:09.394Z,85728.20
2023-12-23T10:50:38.589Z,85738.40
2023-12-23T10:53:14.110Z,85741.80
2023-12-23T10:55:44.591Z,85750.20
2023-12-23T10:58:15.808Z,85749.40
2023-12-23T11:00:49.320Z,85755.00
2023-12-23T11:03:18.754Z,85758.00
2023-12-23T11:05:50.627Z,85765.00
2023-12-23T11:08:26.705Z,85779.00
2023-12-23T11:14:02.165Z,85788.60
2023-12-23T11:16:32.257Z,85786.20
2023-12-23T11:19:02.080Z,85790.20
2023-12-23T11:21:32.152Z,85796.40
2023-12-23T11:24:04.795Z,85795.60
2023-12-23T11:26:43.633Z,85802.60
2023-12-23T11:29:17.210Z,85810.80
2023-12-23T11:31:46.369Z,85814.80
2023-12-23T11:34:21.920Z,85815.40
2023-12-23T11:36:51.897Z,85822.40
2023-12-23T11:39:20.924Z,85838.40
2023-12-23T11:41:50.623Z,85843.60
2023-12-23T11:44:21.179Z,85838.40
2023-12-23T11:46:52.520Z,85850.80
2023-12-23T11:49:21.674Z,85856.20
2023-12-23T11:51:53.033Z,85857.40
2023-12-23T11:54:22.060Z,85857.80
2023-12-23T11:56:53.615Z,85865.40
2023-12-23T11:59:22.591Z,85866.80
2023-12-23T12:01:52.159Z,85872.40
2023-12-23T12:04:21.301Z,85879.60
2023-12-23T12:06:50.262Z,85882.80
2023-12-23T12:09:22.360Z,85892.40
2023-12-23T12:11:51.396Z,85890.20
2023-12-23T12:14:20.685Z,85897.40
2023-12-23T12:16:49.788Z,85907.00
2023-12-23T12:19:19.247Z,85912.60
2023-12-23T12:21:48.222Z,85922.60
2023-12-23T12:24:17.265Z,85922.80
2023-12-23T12:26:48.610Z,85927.40
2023-12-23T12:29:17.495Z,85931.60
2023-12-23T12:31:46.422Z,85937.40
2023-12-23T12:34:15.843Z,85937.80
2023-12-23T12:36:45.508Z,85949.20
2023-12-23T12:39:16.017Z,85945.80
2023-12-23T12:41:45.079Z,85950.20
2023-12-23T12:44:14.282Z,85956.20
2023-12-23T12:46:43.911Z,85959.60
2023-12-23T12:49:14.547Z,85963.20
2023-12-23T12:51:44.965Z,85968.60
2023-12-23T12:54:13.817Z,85980.20
2023-12-23T12:56:43.065Z,85989.00
2023-12-23T12:59:12.060Z,85992.40
2023-12-23T13:01:41.158Z,85994.80
2023-12-23T13:04:10.403Z,86004.00
2023-12-23T13:06:39.201Z,86006.60
2023-12-23T13:09:09.162Z,86015.40
2023-12-23T13:11:38.700Z,86021.60
2023-12-23T13:14:07.609Z,86030.00
2023-12-23T13:16:36.760Z,86037.00
2023-12-23T13:19:05.740Z,86043.20
2023-12-23T13:21:35.281Z,86049.20
2023-12-23T13:24:05.526Z,86049.80
2023-12-23T13:26:34.501Z,86067.00
2023-12-23T13:29:03.752Z,86066.80
2023-12-23T13:31:32.997Z,86072.60
2023-12-23T13:34:02.000Z,86088.20
2023-12-23T13:36:30.833Z,86087.80
2023-12-23T13:38:59.628Z,86096.00
2023-12-23T13:41:30.505Z,86097.60
2023-12-23T13:43:59.862Z,86111.80
2023-12-23T13:46:28.836Z,86122.60
2023-12-23T13:48:57.961Z,86129.60
2023-12-23T13:51:28.050Z,86133.00
2023-12-23T13:53:57.518Z,86141.40
2023-12-23T13:56:26.518Z,86135.40
2023-12-23T13:58:55.812Z,86139.00
2023-12-23T14:01:25.020Z,86142.40
2023-12-23T14:03:54.191Z,86149.00
2023-12-23T14:06:23.159Z,86154.20
2023-12-23T14:08:52.159Z,86153.00
2023-12-23T14:11:21.059Z,86158.20
2023-12-23T14:13:49.862Z,86163.60
2023-12-23T14:16:19.731Z,86173.60
2023-12-23T14:18:48.816Z,86178.80
2023-12-23T14:21:17.780Z,86181.20
2023-12-23T14:26:47.604Z,86189.40
2023-12-23T14:29:16.499Z,86188.00
2023-12-23T14:31:45.480Z,86187.00
2023-12-23T14:34:15.076Z,86183.80
2023-12-23T14:36:50.871Z,86193.20
2023-12-23T14:39:24.527Z,86202.20
2023-12-23T14:41:54.263Z,86207.80
2023-12-23T14:44:23.506Z,86204.20
2023-12-23T14:46:52.471Z,86208.00
2023-12-23T14:49:21.252Z,86214.60
2023-12-23T14:51:50.334Z,86221.20
2023-12-23T14:54:19.480Z,86227.40
2023-12-23T14:56:48.514Z,86226.20
2023-12-23T14:59:17.529Z,86225.40
2023-12-23T15:01:46.674Z,86231.40
2023-12-23T15:04:16.384Z,86239.20
2023-12-23T15:06:45.323Z,86234.40
2023-12-23T15:09:14.380Z,86237.40
2023-12-23T15:11:43.158Z,86240.40
2023-12-23T15:14:12.737Z,86241.80
2023-12-23T15:16:41.633Z,86245.80
2023-12-23T15:19:10.619Z,86247.00
2023-12-23T15:21:39.495Z,86262.00
2023-12-23T15:24:10.027Z,86257.40
2023-12-23T15:26:38.979Z,86261.20
2023-12-23T15:29:08.181Z,86265.20
2023-12-23T15:31:37.037Z,86275.00
2023-12-23T15:34:06.211Z,86274.60
2023-12-23T15:36:35.190Z,86277.80
2023-12-23T15:39:04.400Z,86282.60
2023-12-23T15:41:33.579Z,86298.00
2023-12-23T15:44:03.817Z,86299.80
2023-12-23T15:46:33.086Z,86303.40
2023-12-23T15:49:02.132Z,86306.60
2023-12-23T15:51:31.255Z,86317.60
2023-12-23T15:56:27.889Z,86337.80
2023-12-23T15:58:57.197Z,86334.40
2023-12-23T16:01:26.302Z,86333.00
2023-12-23T16:03:58.198Z,86335.00
2023-12-23T16:06:27.319Z,86339.20
2023-12-23T16:08:56.361Z,86346.00
2023-12-23T16:11:25.404Z,86347.20
2023-12-23T16:17:04.001Z,86367.40
2023-12-23T16:19:35.882Z,86359.80
2023-12-23T16:22:06.569Z,86370.80
2023-12-23T16:27:39.628Z,86388.20
2023-12-23T16:30:09.571Z,86384.60
2023-12-23T16:32:38.761Z,86385.00
2023-12-23T16:35:08.801Z,86393.40
2023-12-23T16:37:38.191Z,86402.40
2023-12-23T16:40:23.556Z,86410.60
2023-12-23T16:42:52.764Z,86411.00
2023-12-23T16:45:21.903Z,86421.40
2023-12-23T16:47:54.930Z,86427.60
2023-12-23T16:50:24.532Z,86433.20
2023-12-23T16:52:56.509Z,86431.60
2023-12-23T16:55:41.460Z,86440.60
2023-12-23T16:58:11.343Z,86447.20
2023-12-23T17:00:42.248Z,86447.40
2023-12-23T17:03:11.244Z,86452.20
2023-12-23T17:05:40.351Z,86449.60
2023-12-23T17:08:09.744Z,86456.00
2023-12-23T17:10:38.596Z,86463.20
2023-12-23T17:13:08.195Z,86467.20
2023-12-23T17:15:37.156Z,86469.60
2023-12-23T17:21:18.376Z,86483.60
2023-12-23T17:23:47.418Z,86480.00
2023-12-23T17:26:16.467Z,86483.80
2023-12-23T17:28:45.539Z,86490.60
2023-12-23T17:31:14.464Z,86495.60
2023-12-23T17:33:46.510Z,86496.00
2023-12-23T17:36:15.740Z,86495.60
2023-12-23T17:38:45.323Z,86498.00
2023-12-23T17:41:14.750Z,86497.20
2023-12-23T17:43:43.844Z,86498.20
2023-12-23T17:46:15.189Z,86500.00
2023-12-23T17:48:44.316Z,86508.20
2023-12-23T17:51:15.886Z,86510.60
2023-12-23T17:53:44.854Z,86510.40
2023-12-23T17:56:13.815Z,86513.00
2023-12-23T17:58:43.229Z,86512.40
2023-12-23T18:01:12.222Z,86519.20
2023-12-23T18:03:41.101Z,86520.40
2023-12-23T18:06:30.689Z,86528.60
2023-12-23T18:08:59.819Z,86524.00
2023-12-23T18:14:36.834Z,86532.20
2023-12-23T18:17:06.342Z,86532.60
2023-12-23T18:19:37.862Z,86536.20
2023-12-23T18:22:06.822Z,86536.40
2023-12-23T18:24:35.716Z,86537.80
2023-12-23T18:27:06.023Z,86543.00
2023-12-23T18:29:34.837Z,86541.60
2023-12-23T18:32:04.504Z,86545.00
2023-12-23T18:34:35.480Z,86545.20
2023-12-23T18:37:04.425Z,86547.20
2023-12-23T18:39:36.258Z,86548.40
2023-12-23T18:42:05.291Z,86542.20
2023-12-23T18:44:34.390Z,86550.40
2023-12-23T18:47:04.476Z,86542.20
2023-12-23T18:49:33.575Z,86541.00
2023-12-23T18:52:06.509Z,86541.20
2023-12-23T18:54:35.326Z,86537.80
2023-12-23T18:57:06.254Z,86536.00
2023-12-23T18:59:35.315Z,86535.80
2023-12-23T19:02:06.477Z,86537.40
2023-12-23T19:04:39.000Z,86541.00
2023-12-23T19:07:10.121Z,86543.00
2023-12-23T19:09:39.088Z,86544.20
2023-12-23T19:12:08.324Z,86542.40
2023-12-23T19:14:37.775Z,86541.00
2023-12-23T19:17:07.197Z,86544.00
2023-12-23T19:19:39.120Z,86547.40
2023-12-23T19:22:08.666Z,86547.00
2023-12-23T19:24:37.908Z,86549.00
2023-12-23T19:27:07.060Z,86545.60
2023-12-23T19:29:40.158Z,86550.60
2023-12-23T19:32:09.424Z,86551.00
2023-12-23T19:34:38.458Z,86555.40
2023-12-23T19:37:07.374Z,86561.80
2023-12-23T19:39:36.315Z,86559.00
2023-12-23T19:42:07.554Z,86566.60
2023-12-23T19:44:36.823Z,86571.40
2023-12-23T19:47:06.195Z,86568.20
2023-12-23T19:49:35.276Z,86567.80
2023-12-23T19:52:04.276Z,86568.00
2023-12-23T19:54:33.788Z,86568.40
2023-12-23T19:57:04.040Z,86572.40
2023-12-23T19:59:33.277Z,86569.20
2023-12-23T20:02:02.282Z,86572.80
2023-12-23T20:04:31.174Z,86581.00
2023-12-23T20:07:00.188Z,86577.40
2023-12-23T20:09:29.305Z,86582.20
2023-12-23T20:11:59.819Z,86586.60
2023-12-23T20:14:30.404Z,86593.00
2023-12-23T20:17:00.321Z,86593.20
2023-12-23T20:19:29.487Z,86598.20
2023-12-23T20:21:58.530Z,86600.40
2023-12-23T20:24:27.560Z,86596.80
2023-12-23T20:26:56.689Z,86603.00
2023-12-23T20:29:25.772Z,86601.20
2023-12-23T20:31:55.213Z,86605.40
2023-12-23T20:34:24.093Z,86607.40
2023-12-23T20:36:53.146Z,86612.20
2023-12-23T20:39:26.899Z,86609.80
2023-12-23T20:41:58.435Z,86611.20
2023-12-23T20:44:27.623Z,86610.80
2023-12-23T20:47:02.219Z,86611.00
2023-12-23T20:49:31.330Z,86609.20
2023-12-23T20:52:00.979Z,86608.80
2023-12-23T20:54:29.942Z,86602.40
2023-12-23T20:56:59.007Z,86610.60
2023-12-23T20:59:28.518Z,86606.60
2023-12-23T21:01:57.840Z,86611.60
2023-12-23T21:04:26.867Z,86610.80
2023-12-23T21:06:55.724Z,86608.00
2023-12-23T21:09:24.620Z,86617.00
2023-12-23T21:11:56.764Z,86612.40
2023-12-23T21:14:25.790Z,86610.60
2023-12-23T21:16:56.007Z,86608.40
2023-12-23T21:19:25.961Z,86613.40
2023-12-23T21:21:55.060Z,86621.00
2023-12-23T21:24:24.639Z,86616.40
2023-12-23T21:26:53.598Z,86614.60
2023-12-23T21:29:22.670Z,86612.20
2023-12-23T21:31:52.014Z,86613.80
2023-12-23T21:34:20.985Z,86621.00
2023-12-23T21:36:50.204Z,86623.00
2023-12-23T21:39:19.418Z,86628.80
2023-12-23T21:41:48.517Z,86635.00
2023-12-23T21:44:17.494Z,86634.60
2023-12-23T21:46:52.137Z,86642.20
2023-12-23T21:49:21.702Z,86643.20
2023-12-23T21:51:54.296Z,86640.00
2023-12-23T21:54:27.208Z,86643.20
2023-12-23T21:56:56.870Z,86649.00
2023-12-23T21:59:26.456Z,86649.20
2023-12-23T22:01:55.632Z,86648.00
2023-12-23T22:04:25.173Z,86647.00
2023-12-23T22:06:54.478Z,86658.80
2023-12-23T22:09:23.644Z,86656.40
2023-12-23T22:11:52.799Z,86657.20
2023-12-23T22:14:21.859Z,86650.80
2023-12-23T22:16:53.433Z,86654.80
2023-12-23T22:19:22.367Z,86656.40
2023-12-23T22:21:51.504Z,86653.40
2023-12-23T22:24:20.859Z,86647.80
2023-12-23T22:26:49.797Z,86648.40
2023-12-23T22:29:25.142Z,86652.40
2023-12-23T22:31:54.325Z,86654.40
2023-12-23T22:34:23.576Z,86655.60
2023-12-23T22:36:57.714Z,86657.60
2023-12-23T22:39:30.138Z,86661.80
2023-12-23T22:42:05.349Z,86655.80
2023-12-23T22:44:34.373Z,86661.00
2023-12-23T22:47:05.757Z,86663.20
2023-12-23T22:49:34.853Z,86670.60
2023-12-23T22:52:04.448Z,86673.80
2023-12-23T22:54:33.462Z,86677.00
2023-12-23T22:57:02.286Z,86686.00
2023-12-23T22:59:32.139Z,86685.60
2023-12-23T23:05:27.329Z,86698.20
2023-12-23T23:07:55.551Z,86697.00
2023-12-23T23:10:24.883Z,86696.40
2023-12-23T23:12:54.637Z,86702.80
2023-12-23T23:15:23.116Z,86704.80
2023-12-23T23:17:51.518Z,86709.00
2023-12-23T23:20:21.392Z,86711.40
2023-12-23T23:22:49.904Z,86714.20
2023-12-23T23:25:18.444Z,86719.60
2023-12-23T23:27:48.937Z,86724.20
2023-12-23T23:30:17.479Z,86729.80
2023-12-23T23:32:45.793Z,86726.40
2023-12-23T23:35:14.444Z,86731.20
2023-12-23T23:37:43.036Z,86732.00
2023-12-23T23:40:12.736Z,86737.40
2023-12-23T23:42:41.035Z,86739.80
2023-12-23T23:45:14.778Z,86741.20
2023-12-23T23:47:43.214Z,86741.60
2023-12-23T23:50:12.375Z,86741.00
2023-12-23T23:52:40.811Z,86744.40
2023-12-23T23:55:09.870Z,86749.80
2023-12-23T23:57:41.348Z,86758.20
